sensor_id;sensor_type;location;lat;lon;timestamp;pressure;altitude;pressure_sealevel;temperature;humidity
69219;BME280;56232;53.384;-2.732;2024-01-07T00:01:02;102125.90;;;3.31;42.16
69219;BME280;56232;53.384;-2.732;2024-01-07T00:03:28;102126.44;;;3.45;41.99
69219;BME280;56232;53.384;-2.732;2024-01-07T00:05:53;102127.37;;;3.43;41.94
69219;BME280;56232;53.384;-2.732;2024-01-07T00:08:18;102125.92;;;3.47;41.96
69219;BME280;56232;53.384;-2.732;2024-01-07T00:10:44;102130.32;;;2.97;41.97
69219;BME280;56232;53.384;-2.732;2024-01-07T00:13:10;102132.33;;;3.47;41.86
69219;BME280;56232;53.384;-2.732;2024-01-07T00:15:36;102136.69;;;3.45;41.77
69219;BME280;56232;53.384;-2.732;2024-01-07T00:18:01;102140.22;;;3.47;41.67
69219;BME280;56232;53.384;-2.732;2024-01-07T00:20:27;102143.78;;;3.46;41.53
69219;BME280;56232;53.384;-2.732;2024-01-07T00:22:52;102144.65;;;3.35;41.65
69219;BME280;56232;53.384;-2.732;2024-01-07T00:25:17;102148.41;;;3.28;41.73
69219;BME280;56232;53.384;-2.732;2024-01-07T00:27:43;102149.63;;;3.25;41.82
69219;BME280;56232;53.384;-2.732;2024-01-07T00:30:09;102149.37;;;3.23;41.78
69219;BME280;56232;53.384;-2.732;2024-01-07T00:32:34;102149.53;;;3.19;41.74
69219;BME280;56232;53.384;-2.732;2024-01-07T00:35:00;102146.49;;;2.65;41.81
69219;BME280;56232;53.384;-2.732;2024-01-07T00:37:26;102150.56;;;3.20;41.85
69219;BME280;56232;53.384;-2.732;2024-01-07T00:39:51;102153.26;;;3.20;41.81
69219;BME280;56232;53.384;-2.732;2024-01-07T00:42:16;102156.36;;;3.18;41.75
69219;BME280;56232;53.384;-2.732;2024-01-07T00:44:41;102160.43;;;3.14;41.67
69219;BME280;56232;53.384;-2.732;2024-01-07T00:47:07;102163.46;;;3.12;41.65
69219;BME280;56232;53.384;-2.732;2024-01-07T00:49:32;102165.85;;;3.02;41.79
69219;BME280;56232;53.384;-2.732;2024-01-07T00:51:58;102168.73;;;2.99;41.74
69219;BME280;56232;53.384;-2.732;2024-01-07T00:54:23;102173.87;;;2.99;41.69
69219;BME280;56232;53.384;-2.732;2024-01-07T00:56:49;102178.33;;;2.92;41.64
69219;BME280;56232;53.384;-2.732;2024-01-07T00:59:14;102181.25;;;2.87;41.58
69219;BME280;56232;53.384;-2.732;2024-01-07T01:01:40;102182.76;;;2.81;41.56
69219;BME280;56232;53.384;-2.732;2024-01-07T01:04:05;102186.31;;;2.76;41.55
69219;BME280;56232;53.384;-2.732;2024-01-07T01:06:30;102191.86;;;2.71;41.61
69219;BME280;56232;53.384;-2.732;2024-01-07T01:08:56;102194.80;;;2.66;41.64
69219;BME280;56232;53.384;-2.732;2024-01-07T01:11:22;102197.29;;;2.66;41.62
69219;BME280;56232;53.384;-2.732;2024-01-07T01:13:47;102200.08;;;3.23;41.55
69219;BME280;56232;53.384;-2.732;2024-01-07T01:16:13;102199.85;;;2.64;41.43
69219;BME280;56232;53.384;-2.732;2024-01-07T01:18:39;102198.59;;;2.10;41.40
69219;BME280;56232;53.384;-2.732;2024-01-07T01:21:04;102199.50;;;2.55;41.19
69219;BME280;56232;53.384;-2.732;2024-01-07T01:23:30;102201.76;;;2.48;41.10
69219;BME280;56232;53.384;-2.732;2024-01-07T01:25:55;102203.93;;;2.40;41.14
69219;BME280;56232;53.384;-2.732;2024-01-07T01:28:21;102206.96;;;2.36;41.06
69219;BME280;56232;53.384;-2.732;2024-01-07T01:30:51;102205.11;;;2.27;41.11
69219;BME280;56232;53.384;-2.732;2024-01-07T01:33:11;102205.15;;;2.27;41.10
69219;BME280;56232;53.384;-2.732;2024-01-07T01:35:37;102204.25;;;3.39;41.12
69219;BME280;56232;53.384;-2.732;2024-01-07T01:38:03;102207.10;;;2.31;41.11
69219;BME280;56232;53.384;-2.732;2024-01-07T01:40:29;102211.15;;;2.23;41.00
69219;BME280;56232;53.384;-2.732;2024-01-07T01:42:54;102209.30;;;2.72;41.42
69219;BME280;56232;53.384;-2.732;2024-01-07T01:45:20;102207.87;;;2.12;41.64
69219;BME280;56232;53.384;-2.732;2024-01-07T01:47:46;102209.73;;;3.27;41.56
69219;BME280;56232;53.384;-2.732;2024-01-07T01:50:11;102213.74;;;2.18;41.52
69219;BME280;56232;53.384;-2.732;2024-01-07T01:52:36;102215.25;;;2.17;41.44
69219;BME280;56232;53.384;-2.732;2024-01-07T01:55:02;102215.33;;;2.75;41.44
69219;BME280;56232;53.384;-2.732;2024-01-07T01:57:33;102220.36;;;2.12;41.42
69219;BME280;56232;53.384;-2.732;2024-01-07T01:59:53;102220.13;;;2.13;41.33
69219;BME280;56232;53.384;-2.732;2024-01-07T02:02:18;102220.64;;;2.11;41.24
69219;BME280;56232;53.384;-2.732;2024-01-07T02:04:44;102222.88;;;2.62;41.27
69219;BME280;56232;53.384;-2.732;2024-01-07T02:07:10;102220.29;;;1.97;41.26
69219;BME280;56232;53.384;-2.732;2024-01-07T02:09:35;102223.36;;;1.88;41.31
69219;BME280;56232;53.384;-2.732;2024-01-07T02:12:01;102228.18;;;2.98;41.31
69219;BME280;56232;53.384;-2.732;2024-01-07T02:14:27;102230.48;;;2.45;41.27
69219;BME280;56232;53.384;-2.732;2024-01-07T02:16:52;102233.86;;;2.93;41.32
69219;BME280;56232;53.384;-2.732;2024-01-07T02:19:18;102239.24;;;2.98;41.34
69219;BME280;56232;53.384;-2.732;2024-01-07T02:21:43;102242.38;;;2.98;41.41
69219;BME280;56232;53.384;-2.732;2024-01-07T02:24:16;102246.74;;;2.48;41.45
69219;BME280;56232;53.384;-2.732;2024-01-07T02:26:34;102252.57;;;1.90;41.51
69219;BME280;56232;53.384;-2.732;2024-01-07T02:28:59;102256.31;;;3.02;41.61
69219;BME280;56232;53.384;-2.732;2024-01-07T02:31:25;102258.35;;;3.02;41.73
69219;BME280;56232;53.384;-2.732;2024-01-07T02:33:50;102258.82;;;2.61;41.79
69219;BME280;56232;53.384;-2.732;2024-01-07T02:36:16;102256.58;;;2.64;41.78
69219;BME280;56232;53.384;-2.732;2024-01-07T02:38:41;102257.88;;;2.04;41.86
69219;BME280;56232;53.384;-2.732;2024-01-07T02:41:06;102259.90;;;2.71;41.79
69219;BME280;56232;53.384;-2.732;2024-01-07T02:43:31;102262.77;;;3.23;41.54
69219;BME280;56232;53.384;-2.732;2024-01-07T02:45:57;102265.66;;;2.06;41.48
69219;BME280;56232;53.384;-2.732;2024-01-07T02:48:22;102268.49;;;3.09;41.33
69219;BME280;56232;53.384;-2.732;2024-01-07T02:50:48;102270.61;;;2.53;41.56
69219;BME280;56232;53.384;-2.732;2024-01-07T02:53:13;102273.74;;;1.90;41.42
69219;BME280;56232;53.384;-2.732;2024-01-07T02:55:38;102272.77;;;2.90;41.54
69219;BME280;56232;53.384;-2.732;2024-01-07T02:58:04;102269.95;;;2.87;41.41
69219;BME280;56232;53.384;-2.732;2024-01-07T03:00:29;102270.01;;;2.31;41.57
69219;BME280;56232;53.384;-2.732;2024-01-07T03:02:55;102273.43;;;2.81;41.60
69219;BME280;56232;53.384;-2.732;2024-01-07T03:05:20;102275.04;;;2.79;41.55
69219;BME280;56232;53.384;-2.732;2024-01-07T03:07:45;102278.97;;;2.27;41.58
69219;BME280;56232;53.384;-2.732;2024-01-07T03:10:11;102278.85;;;2.83;41.51
69219;BME280;56232;53.384;-2.732;2024-01-07T03:12:37;102284.68;;;2.35;41.40
69219;BME280;56232;53.384;-2.732;2024-01-07T03:15:02;102288.47;;;2.33;41.40
69219;BME280;56232;53.384;-2.732;2024-01-07T03:17:28;102285.16;;;3.29;41.48
69219;BME280;56232;53.384;-2.732;2024-01-07T03:19:53;102287.95;;;2.38;41.35
69219;BME280;56232;53.384;-2.732;2024-01-07T03:22:19;102292.31;;;2.31;41.30
69219;BME280;56232;53.384;-2.732;2024-01-07T03:24:45;102298.60;;;2.32;41.30
69219;BME280;56232;53.384;-2.732;2024-01-07T03:27:10;102303.87;;;2.31;41.26
69219;BME280;56232;53.384;-2.732;2024-01-07T03:29:36;102310.30;;;2.31;41.27
69219;BME280;56232;53.384;-2.732;2024-01-07T03:32:01;102313.14;;;2.29;41.21
69219;BME280;56232;53.384;-2.732;2024-01-07T03:34:27;102317.35;;;1.58;41.28
69219;BME280;56232;53.384;-2.732;2024-01-07T03:36:52;102321.42;;;2.65;41.18
69219;BME280;56232;53.384;-2.732;2024-01-07T03:39:17;102323.21;;;2.58;41.36
69219;BME280;56232;53.384;-2.732;2024-01-07T03:41:43;102324.50;;;1.48;41.39
69219;BME280;56232;53.384;-2.732;2024-01-07T03:44:10;102323.96;;;2.07;41.35
69219;BME280;56232;53.384;-2.732;2024-01-07T03:46:33;102321.32;;;2.04;41.28
69219;BME280;56232;53.384;-2.732;2024-01-07T03:48:59;102322.83;;;2.54;41.23
69219;BME280;56232;53.384;-2.732;2024-01-07T03:51:24;102328.04;;;2.50;41.21
69219;BME280;56232;53.384;-2.732;2024-01-07T03:53:50;102333.07;;;2.49;41.15
69219;BME280;56232;53.384;-2.732;2024-01-07T03:56:15;102338.41;;;2.39;41.05
69219;BME280;56232;53.384;-2.732;2024-01-07T03:58:41;102339.61;;;2.31;41.13
69219;BME280;56232;53.384;-2.732;2024-01-07T04:01:07;102342.51;;;1.82;41.02
69219;BME280;56232;53.384;-2.732;2024-01-07T04:03:32;102347.28;;;1.70;40.95
69219;BME280;56232;53.384;-2.732;2024-01-07T04:05:57;102350.88;;;2.16;40.92
69219;BME280;56232;53.384;-2.732;2024-01-07T04:08:23;102352.05;;;2.11;40.88
69219;BME280;56232;53.384;-2.732;2024-01-07T04:10:49;102352.20;;;2.06;40.84
69219;BME280;56232;53.384;-2.732;2024-01-07T04:13:14;102355.92;;;1.99;40.84
69219;BME280;56232;53.384;-2.732;2024-01-07T04:15:39;102354.65;;;1.91;40.91
69219;BME280;56232;53.384;-2.732;2024-01-07T04:18:05;102354.03;;;1.88;40.88
69219;BME280;56232;53.384;-2.732;2024-01-07T04:20:30;102357.84;;;2.39;40.83
69219;BME280;56232;53.384;-2.732;2024-01-07T04:22:56;102361.01;;;1.88;40.78
69219;BME280;56232;53.384;-2.732;2024-01-07T04:25:21;102360.85;;;1.82;40.65
69219;BME280;56232;53.384;-2.732;2024-01-07T04:27:47;102359.18;;;1.72;40.73
69219;BME280;56232;53.384;-2.732;2024-01-07T04:30:12;102360.14;;;2.18;40.76
69219;BME280;56232;53.384;-2.732;2024-01-07T04:32:38;102360.63;;;1.73;40.83
69219;BME280;56232;53.384;-2.732;2024-01-07T04:35:03;102357.32;;;1.80;40.79
69219;BME280;56232;53.384;-2.732;2024-01-07T04:37:29;102353.84;;;1.80;40.83
69219;BME280;56232;53.384;-2.732;2024-01-07T04:39:54;102354.32;;;1.82;40.91
69219;BME280;56232;53.384;-2.732;2024-01-07T04:42:19;102357.93;;;2.40;40.88
69219;BME280;56232;53.384;-2.732;2024-01-07T04:44:44;102358.83;;;1.92;40.94
69219;BME280;56232;53.384;-2.732;2024-01-07T04:49:38;102357.07;;;2.00;40.99
69219;BME280;56232;53.384;-2.732;2024-01-07T04:52:02;102358.81;;;2.01;40.97
69219;BME280;56232;53.384;-2.732;2024-01-07T04:54:29;102362.12;;;1.97;40.82
69219;BME280;56232;53.384;-2.732;2024-01-07T04:56:53;102362.96;;;1.92;40.79
69219;BME280;56232;53.384;-2.732;2024-01-07T04:59:18;102361.91;;;2.37;40.74
69219;BME280;56232;53.384;-2.732;2024-01-07T05:01:44;102364.52;;;1.78;40.75
69219;BME280;56232;53.384;-2.732;2024-01-07T05:04:10;102368.68;;;1.72;40.80
69219;BME280;56232;53.384;-2.732;2024-01-07T05:06:35;102367.20;;;1.67;40.79
69219;BME280;56232;53.384;-2.732;2024-01-07T05:09:01;102367.30;;;1.62;40.82
69219;BME280;56232;53.384;-2.732;2024-01-07T05:11:26;102366.32;;;1.62;40.79
69219;BME280;56232;53.384;-2.732;2024-01-07T05:13:52;102368.24;;;1.58;40.81
69219;BME280;56232;53.384;-2.732;2024-01-07T05:16:18;102367.02;;;1.59;40.77
69219;BME280;56232;53.384;-2.732;2024-01-07T05:18:42;102365.60;;;1.64;40.72
69219;BME280;56232;53.384;-2.732;2024-01-07T05:21:07;102364.76;;;1.65;40.74
69219;BME280;56232;53.384;-2.732;2024-01-07T05:23:33;102371.84;;;1.59;40.57
69219;BME280;56232;53.384;-2.732;2024-01-07T05:25:59;102374.06;;;1.51;40.61
69219;BME280;56232;53.384;-2.732;2024-01-07T05:28:24;102377.05;;;1.48;40.71
69219;BME280;56232;53.384;-2.732;2024-01-07T05:30:49;102379.24;;;1.47;40.91
69219;BME280;56232;53.384;-2.732;2024-01-07T05:33:15;102384.74;;;1.53;40.99
69219;BME280;56232;53.384;-2.732;2024-01-07T05:35:40;102389.25;;;1.58;40.97
69219;BME280;56232;53.384;-2.732;2024-01-07T05:38:06;102389.13;;;1.60;40.92
69219;BME280;56232;53.384;-2.732;2024-01-07T05:40:31;102390.30;;;2.12;40.80
69219;BME280;56232;53.384;-2.732;2024-01-07T05:42:57;102395.28;;;1.60;40.82
69219;BME280;56232;53.384;-2.732;2024-01-07T05:45:22;102393.12;;;1.61;40.79
69219;BME280;56232;53.384;-2.732;2024-01-07T05:47:48;102397.78;;;1.58;40.72
69219;BME280;56232;53.384;-2.732;2024-01-07T05:50:14;102402.93;;;1.56;40.76
69219;BME280;56232;53.384;-2.732;2024-01-07T05:52:40;102402.17;;;1.99;40.90
69219;BME280;56232;53.384;-2.732;2024-01-07T05:55:05;102404.11;;;1.45;40.95
69219;BME280;56232;53.384;-2.732;2024-01-07T05:57:30;102404.98;;;1.47;40.97
69219;BME280;56232;53.384;-2.732;2024-01-07T05:59:56;102405.25;;;1.97;40.92
69219;BME280;56232;53.384;-2.732;2024-01-07T06:02:22;102408.14;;;1.90;40.67
69219;BME280;56232;53.384;-2.732;2024-01-07T06:04:47;102410.88;;;1.32;40.76
69219;BME280;56232;53.384;-2.732;2024-01-07T06:07:13;102414.61;;;1.24;40.69
69219;BME280;56232;53.384;-2.732;2024-01-07T06:09:38;102420.60;;;1.14;40.76
69219;BME280;56232;53.384;-2.732;2024-01-07T06:12:04;102429.12;;;1.13;40.73
69219;BME280;56232;53.384;-2.732;2024-01-07T06:14:30;102428.67;;;2.14;40.91
69219;BME280;56232;53.384;-2.732;2024-01-07T06:16:55;102433.89;;;1.58;40.98
69219;BME280;56232;53.384;-2.732;2024-01-07T06:19:20;102434.84;;;1.63;40.93
69219;BME280;56232;53.384;-2.732;2024-01-07T06:21:45;102432.85;;;1.15;40.85
69219;BME280;56232;53.384;-2.732;2024-01-07T06:24:11;102432.05;;;1.64;40.86
69219;BME280;56232;53.384;-2.732;2024-01-07T06:26:36;102435.56;;;1.70;40.78
69219;BME280;56232;53.384;-2.732;2024-01-07T06:29:01;102434.70;;;1.67;40.76
69219;BME280;56232;53.384;-2.732;2024-01-07T06:31:28;102434.63;;;1.11;40.77
69219;BME280;56232;53.384;-2.732;2024-01-07T06:33:52;102434.11;;;1.00;40.76
69219;BME280;56232;53.384;-2.732;2024-01-07T06:36:18;102437.62;;;1.49;40.79
69219;BME280;56232;53.384;-2.732;2024-01-07T06:38:43;102443.78;;;2.10;40.84
69219;BME280;56232;53.384;-2.732;2024-01-07T06:41:09;102446.07;;;1.09;40.94
69219;BME280;56232;53.384;-2.732;2024-01-07T06:43:34;102448.20;;;1.71;41.07
69219;BME280;56232;53.384;-2.732;2024-01-07T06:46:00;102449.44;;;1.84;41.13
69219;BME280;56232;53.384;-2.732;2024-01-07T06:48:25;102453.76;;;1.51;41.22
69219;BME280;56232;53.384;-2.732;2024-01-07T06:50:50;102463.57;;;1.71;41.07
69219;BME280;56232;53.384;-2.732;2024-01-07T06:53:16;102465.57;;;1.68;41.03
69219;BME280;56232;53.384;-2.732;2024-01-07T06:55:42;102472.71;;;1.64;41.05
69219;BME280;56232;53.384;-2.732;2024-01-07T06:58:07;102476.32;;;1.61;41.08
69219;BME280;56232;53.384;-2.732;2024-01-07T07:00:33;102478.94;;;1.58;41.12
69219;BME280;56232;53.384;-2.732;2024-01-07T07:02:58;102480.37;;;2.02;41.30
69219;BME280;56232;53.384;-2.732;2024-01-07T07:05:24;102483.79;;;1.54;41.35
69219;BME280;56232;53.384;-2.732;2024-01-07T07:07:49;102487.07;;;1.58;41.68
69219;BME280;56232;53.384;-2.732;2024-01-07T07:10:14;102492.30;;;1.75;41.73
69219;BME280;56232;53.384;-2.732;2024-01-07T07:12:39;102499.53;;;1.91;41.75
69219;BME280;56232;53.384;-2.732;2024-01-07T07:15:06;102496.24;;;2.10;41.81
69219;BME280;56232;53.384;-2.732;2024-01-07T07:17:31;102496.11;;;2.30;41.68
69219;BME280;56232;53.384;-2.732;2024-01-07T07:19:57;102501.26;;;2.56;41.51
69219;BME280;56232;53.384;-2.732;2024-01-07T07:22:22;102505.33;;;2.60;41.25
69219;BME280;56232;53.384;-2.732;2024-01-07T07:24:48;102509.64;;;2.47;41.05
69219;BME280;56232;53.384;-2.732;2024-01-07T07:27:13;102514.07;;;2.32;40.95
69219;BME280;56232;53.384;-2.732;2024-01-07T07:29:39;102518.06;;;2.15;41.10
69219;BME280;56232;53.384;-2.732;2024-01-07T07:32:05;102522.66;;;2.03;40.88
69219;BME280;56232;53.384;-2.732;2024-01-07T07:34:30;102524.21;;;1.94;41.09
69219;BME280;56232;53.384;-2.732;2024-01-07T07:36:55;102525.71;;;1.90;41.04
69219;BME280;56232;53.384;-2.732;2024-01-07T07:39:21;102526.31;;;1.86;40.97
69219;BME280;56232;53.384;-2.732;2024-01-07T07:41:47;102529.45;;;1.82;40.96
69219;BME280;56232;53.384;-2.732;2024-01-07T07:44:12;102532.54;;;1.88;40.99
69219;BME280;56232;53.384;-2.732;2024-01-07T07:46:38;102538.20;;;1.73;40.96
69219;BME280;56232;53.384;-2.732;2024-01-07T07:49:03;102542.37;;;1.75;41.39
69219;BME280;56232;53.384;-2.732;2024-01-07T07:51:30;102544.76;;;1.88;41.37
69219;BME280;56232;53.384;-2.732;2024-01-07T07:53:54;102552.42;;;2.42;41.22
69219;BME280;56232;53.384;-2.732;2024-01-07T07:56:20;102555.55;;;1.90;41.56
69219;BME280;56232;53.384;-2.732;2024-01-07T07:58:46;102558.86;;;2.00;41.48
69219;BME280;56232;53.384;-2.732;2024-01-07T08:01:11;102559.29;;;2.59;41.37
69219;BME280;56232;53.384;-2.732;2024-01-07T08:03:37;102564.12;;;2.25;41.39
69219;BME280;56232;53.384;-2.732;2024-01-07T08:06:02;102566.43;;;2.43;41.37
69219;BME280;56232;53.384;-2.732;2024-01-07T08:08:28;102575.48;;;2.60;41.35
69219;BME280;56232;53.384;-2.732;2024-01-07T08:10:53;102575.45;;;2.73;41.28
69219;BME280;56232;53.384;-2.732;2024-01-07T08:13:18;102580.92;;;2.88;41.14
69219;BME280;56232;53.384;-2.732;2024-01-07T08:15:44;102581.54;;;2.92;41.12
69219;BME280;56232;53.384;-2.732;2024-01-07T08:18:09;102583.98;;;2.54;40.97
69219;BME280;56232;53.384;-2.732;2024-01-07T08:20:35;102582.75;;;2.69;40.99
69219;BME280;56232;53.384;-2.732;2024-01-07T08:23:00;102586.84;;;3.33;40.97
69219;BME280;56232;53.384;-2.732;2024-01-07T08:25:26;102589.43;;;2.42;41.00
69219;BME280;56232;53.384;-2.732;2024-01-07T08:27:52;102590.35;;;3.69;41.08
69219;BME280;56232;53.384;-2.732;2024-01-07T08:30:17;102591.80;;;3.88;41.20
69219;BME280;56232;53.384;-2.732;2024-01-07T08:32:43;102592.11;;;2.95;40.97
69219;BME280;56232;53.384;-2.732;2024-01-07T08:35:09;102593.28;;;3.13;40.87
69219;BME280;56232;53.384;-2.732;2024-01-07T08:37:34;102595.05;;;3.26;40.84
69219;BME280;56232;53.384;-2.732;2024-01-07T08:39:59;102598.46;;;3.32;40.90
69219;BME280;56232;53.384;-2.732;2024-01-07T08:42:26;102600.91;;;3.45;40.93
69219;BME280;56232;53.384;-2.732;2024-01-07T08:44:50;102604.90;;;3.60;40.96
69219;BME280;56232;53.384;-2.732;2024-01-07T08:47:15;102608.34;;;3.79;40.96
69219;BME280;56232;53.384;-2.732;2024-01-07T08:49:41;102607.90;;;3.49;40.91
69219;BME280;56232;53.384;-2.732;2024-01-07T08:52:07;102609.29;;;4.18;40.74
69219;BME280;56232;53.384;-2.732;2024-01-07T08:54:32;102612.43;;;4.37;40.72
69219;BME280;56232;53.384;-2.732;2024-01-07T08:56:58;102612.88;;;3.95;40.62
69219;BME280;56232;53.384;-2.732;2024-01-07T08:59:23;102614.96;;;4.01;40.48
69219;BME280;56232;53.384;-2.732;2024-01-07T09:01:49;102614.98;;;4.48;40.30
69219;BME280;56232;53.384;-2.732;2024-01-07T09:04:15;102619.33;;;3.87;40.14
69219;BME280;56232;53.384;-2.732;2024-01-07T09:06:40;102620.41;;;4.27;40.11
69219;BME280;56232;53.384;-2.732;2024-01-07T09:09:05;102619.54;;;3.72;40.07
69219;BME280;56232;53.384;-2.732;2024-01-07T09:11:32;102621.20;;;3.57;40.12
69219;BME280;56232;53.384;-2.732;2024-01-07T09:13:56;102621.83;;;3.93;40.20
69219;BME280;56232;53.384;-2.732;2024-01-07T09:16:22;102627.36;;;3.81;40.21
69219;BME280;56232;53.384;-2.732;2024-01-07T09:18:48;102630.43;;;3.78;40.13
69219;BME280;56232;53.384;-2.732;2024-01-07T09:21:13;102628.00;;;3.72;40.09
69219;BME280;56232;53.384;-2.732;2024-01-07T09:23:39;102631.66;;;3.66;40.06
69219;BME280;56232;53.384;-2.732;2024-01-07T09:26:04;102635.79;;;3.62;40.13
69219;BME280;56232;53.384;-2.732;2024-01-07T09:28:31;102634.36;;;3.63;40.11
69219;BME280;56232;53.384;-2.732;2024-01-07T09:30:55;102635.39;;;3.73;40.15
69219;BME280;56232;53.384;-2.732;2024-01-07T09:33:21;102639.17;;;3.86;40.21
69219;BME280;56232;53.384;-2.732;2024-01-07T09:35:46;102638.77;;;4.10;40.32
69219;BME280;56232;53.384;-2.732;2024-01-07T09:38:11;102638.77;;;4.21;40.50
69219;BME280;56232;53.384;-2.732;2024-01-07T09:40:38;102645.74;;;4.31;40.41
69219;BME280;56232;53.384;-2.732;2024-01-07T09:43:03;102645.91;;;4.86;40.20
69219;BME280;56232;53.384;-2.732;2024-01-07T09:45:29;102645.89;;;5.29;39.79
69219;BME280;56232;53.384;-2.732;2024-01-07T09:47:53;102651.48;;;5.62;39.59
69219;BME280;56232;53.384;-2.732;2024-01-07T09:50:19;102654.94;;;4.58;39.64
69219;BME280;56232;53.384;-2.732;2024-01-07T09:52:45;102660.13;;;4.40;39.65
69219;BME280;56232;53.384;-2.732;2024-01-07T09:55:14;102662.72;;;5.43;39.74
69219;BME280;56232;53.384;-2.732;2024-01-07T09:57:38;102665.54;;;5.46;39.97
69219;BME280;56232;53.384;-2.732;2024-01-07T10:00:02;102661.45;;;5.53;40.14
69219;BME280;56232;53.384;-2.732;2024-01-07T10:02:29;102663.80;;;5.10;40.25
69219;BME280;56232;53.384;-2.732;2024-01-07T10:04:53;102665.77;;;5.92;40.24
69219;BME280;56232;53.384;-2.732;2024-01-07T10:07:19;102667.61;;;5.10;40.20
69219;BME280;56232;53.384;-2.732;2024-01-07T10:09:44;102672.04;;;5.19;40.00
69219;BME280;56232;53.384;-2.732;2024-01-07T10:12:10;102678.51;;;5.09;39.79
69219;BME280;56232;53.384;-2.732;2024-01-07T10:14:36;102682.35;;;4.99;39.74
69219;BME280;56232;53.384;-2.732;2024-01-07T10:17:01;102684.61;;;4.75;39.91
69219;BME280;56232;53.384;-2.732;2024-01-07T10:19:27;102690.21;;;5.11;39.97
69219;BME280;56232;53.384;-2.732;2024-01-07T10:21:58;102699.50;;;5.64;40.01
69219;BME280;56232;53.384;-2.732;2024-01-07T10:24:19;102706.75;;;4.75;40.17
69219;BME280;56232;53.384;-2.732;2024-01-07T10:26:44;102707.10;;;5.05;40.32
69219;BME280;56232;53.384;-2.732;2024-01-07T10:29:10;102708.95;;;6.40;40.40
69219;BME280;56232;53.384;-2.732;2024-01-07T10:31:38;102706.42;;;5.49;40.30
69219;BME280;56232;53.384;-2.732;2024-01-07T10:34:01;102705.38;;;5.74;40.22
69219;BME280;56232;53.384;-2.732;2024-01-07T10:36:28;102707.16;;;6.01;39.91
69219;BME280;56232;53.384;-2.732;2024-01-07T10:38:54;102704.78;;;6.10;39.71
69219;BME280;56232;53.384;-2.732;2024-01-07T10:41:19;102706.24;;;5.50;39.91
69219;BME280;56232;53.384;-2.732;2024-01-07T10:43:46;102707.16;;;6.06;40.00
69219;BME280;56232;53.384;-2.732;2024-01-07T10:46:10;102704.66;;;6.01;40.15
69219;BME280;56232;53.384;-2.732;2024-01-07T10:48:38;102707.61;;;5.85;40.04
69219;BME280;56232;53.384;-2.732;2024-01-07T10:51:00;102707.81;;;5.73;40.20
69219;BME280;56232;53.384;-2.732;2024-01-07T10:53:32;102702.90;;;5.43;40.59
69219;BME280;56232;53.384;-2.732;2024-01-07T10:55:59;102698.02;;;5.23;40.90
69219;BME280;56232;53.384;-2.732;2024-01-07T10:58:18;102696.76;;;5.61;41.07
69219;BME280;56232;53.384;-2.732;2024-01-07T11:00:43;102697.14;;;5.60;40.96
69219;BME280;56232;53.384;-2.732;2024-01-07T11:03:11;102701.82;;;5.69;41.05
69219;BME280;56232;53.384;-2.732;2024-01-07T11:05:40;102703.04;;;5.17;41.02
69219;BME280;56232;53.384;-2.732;2024-01-07T11:08:06;102700.94;;;5.17;41.30
69219;BME280;56232;53.384;-2.732;2024-01-07T11:10:31;102705.59;;;5.61;41.53
69219;BME280;56232;53.384;-2.732;2024-01-07T11:12:54;102711.15;;;4.87;41.44
69219;BME280;56232;53.384;-2.732;2024-01-07T11:17:43;102718.98;;;5.17;41.58
69219;BME280;56232;53.384;-2.732;2024-01-07T11:20:21;102714.70;;;4.38;42.03
69219;BME280;56232;53.384;-2.732;2024-01-07T11:22:39;102714.52;;;5.40;41.40
69219;BME280;56232;53.384;-2.732;2024-01-07T11:27:32;102711.73;;;6.47;41.59
69219;BME280;56232;53.384;-2.732;2024-01-07T11:29:57;102710.72;;;5.25;41.59
69219;BME280;56232;53.384;-2.732;2024-01-07T11:32:23;102710.66;;;5.11;41.79
69219;BME280;56232;53.384;-2.732;2024-01-07T11:34:47;102714.96;;;5.16;41.85
69219;BME280;56232;53.384;-2.732;2024-01-07T11:37:13;102715.85;;;5.25;42.09
69219;BME280;56232;53.384;-2.732;2024-01-07T11:39:38;102714.16;;;5.89;42.50
69219;BME280;56232;53.384;-2.732;2024-01-07T11:42:04;102715.33;;;5.51;42.41
69219;BME280;56232;53.384;-2.732;2024-01-07T11:44:34;102718.43;;;5.70;42.83
69219;BME280;56232;53.384;-2.732;2024-01-07T11:46:56;102716.14;;;5.83;42.80
69219;BME280;56232;53.384;-2.732;2024-01-07T11:49:21;102716.54;;;5.85;42.82
69219;BME280;56232;53.384;-2.732;2024-01-07T11:51:47;102716.97;;;5.65;42.14
69219;BME280;56232;53.384;-2.732;2024-01-07T11:54:12;102720.25;;;5.37;42.75
69219;BME280;56232;53.384;-2.732;2024-01-07T11:56:39;102721.67;;;4.55;42.67
69219;BME280;56232;53.384;-2.732;2024-01-07T11:59:03;102717.19;;;5.19;42.90
69219;BME280;56232;53.384;-2.732;2024-01-07T12:01:28;102718.81;;;6.26;42.81
69219;BME280;56232;53.384;-2.732;2024-01-07T12:03:53;102715.70;;;6.29;42.38
69219;BME280;56232;53.384;-2.732;2024-01-07T12:06:19;102720.24;;;5.61;42.61
69219;BME280;56232;53.384;-2.732;2024-01-07T12:08:45;102724.50;;;6.27;42.54
69219;BME280;56232;53.384;-2.732;2024-01-07T12:11:12;102727.18;;;6.41;42.76
69219;BME280;56232;53.384;-2.732;2024-01-07T12:13:37;102726.42;;;6.63;43.10
69219;BME280;56232;53.384;-2.732;2024-01-07T12:16:02;102727.75;;;5.54;41.68
69219;BME280;56232;53.384;-2.732;2024-01-07T12:18:27;102725.34;;;5.29;42.63
69219;BME280;56232;53.384;-2.732;2024-01-07T12:20:55;102726.67;;;5.82;42.89
69219;BME280;56232;53.384;-2.732;2024-01-07T12:23:19;102729.31;;;6.38;43.16
69219;BME280;56232;53.384;-2.732;2024-01-07T12:25:45;102729.72;;;5.49;43.23
69219;BME280;56232;53.384;-2.732;2024-01-07T12:28:10;102729.65;;;5.69;42.93
69219;BME280;56232;53.384;-2.732;2024-01-07T12:30:36;102725.04;;;5.63;41.27
69219;BME280;56232;53.384;-2.732;2024-01-07T12:33:04;102727.68;;;5.41;42.82
69219;BME280;56232;53.384;-2.732;2024-01-07T12:35:28;102730.25;;;5.37;42.94
69219;BME280;56232;53.384;-2.732;2024-01-07T12:37:52;102734.24;;;5.54;43.11
69219;BME280;56232;53.384;-2.732;2024-01-07T12:40:18;102732.17;;;5.95;43.23
69219;BME280;56232;53.384;-2.732;2024-01-07T12:42:43;102729.83;;;6.45;43.41
69219;BME280;56232;53.384;-2.732;2024-01-07T12:45:09;102730.65;;;5.83;43.40
69219;BME280;56232;53.384;-2.732;2024-01-07T12:47:34;102730.32;;;6.14;43.50